Wilmot, Wisconsin
Current Conditions -  °F | °C
As of 4:55 PM on Tuesday 25 Nov 2014 (Local Time) from KBUU Reporting Station
Overcast Overcast  
Wind Chill: 11°   Ceiling: 1700
Heat Index: 20°   Visibility: 10mi
Dew Point: 16°   Wind: 7mph
Humidity: 83%   Direction: 280°W
Pressure: 30.13"   Gusts: NA
Location:  42.51°N, 88.18°W
Report Text: KBUU 252255Z AUTO 28006KT 10SM OVC017 M07/M09 A3013 RMK AO2 T10661091
Loading
Personal Weather Stations






























Interactive Weather Map New forecast layout! Learn more

10-Day Weather Forecast

Advertisements
Track Severe Weather on mobile